sensor_id;sensor_type;location;lat;lon;timestamp;pressure;altitude;pressure_sealevel;temperature;humidity
65659;BME280;60181;53.258;6.932;2023-05-01T00:01:41;102125.25;;;15.36;53.81
65659;BME280;60181;53.258;6.932;2023-05-01T00:05:45;102120.26;;;15.35;53.88
65659;BME280;60181;53.258;6.932;2023-05-01T00:09:49;102116.52;;;15.34;53.72
65659;BME280;60181;53.258;6.932;2023-05-01T00:13:53;102112.94;;;15.33;53.87
65659;BME280;60181;53.258;6.932;2023-05-01T00:17:57;102108.78;;;15.32;53.78
65659;BME280;60181;53.258;6.932;2023-05-01T00:22:01;102104.96;;;15.31;53.64
65659;BME280;60181;53.258;6.932;2023-05-01T00:26:05;102100.79;;;15.30;53.57
65659;BME280;60181;53.258;6.932;2023-05-01T00:30:09;102096.08;;;15.29;53.57
65659;BME280;60181;53.258;6.932;2023-05-01T00:34:13;102092.25;;;15.28;53.44
65659;BME280;60181;53.258;6.932;2023-05-01T00:38:17;102088.78;;;15.28;53.55
65659;BME280;60181;53.258;6.932;2023-05-01T00:42:21;102084.63;;;15.27;53.46
65659;BME280;60181;53.258;6.932;2023-05-01T00:46:25;102080.50;;;15.27;53.51
65659;BME280;60181;53.258;6.932;2023-05-01T00:50:29;102076.54;;;15.27;53.45
65659;BME280;60181;53.258;6.932;2023-05-01T00:54:33;102072.21;;;15.26;53.35
65659;BME280;60181;53.258;6.932;2023-05-01T00:58:37;102067.50;;;15.26;53.10
65659;BME280;60181;53.258;6.932;2023-05-01T01:02:41;102063.44;;;15.25;53.30
65659;BME280;60181;53.258;6.932;2023-05-01T01:06:51;102059.69;;;15.24;53.20
65659;BME280;60181;53.258;6.932;2023-05-01T01:10:53;102055.36;;;15.23;53.21
65659;BME280;60181;53.258;6.932;2023-05-01T01:19:01;102044.81;;;15.20;52.97
65659;BME280;60181;53.258;6.932;2023-05-01T01:31:10;102031.01;;;15.14;52.61
65659;BME280;60181;53.258;6.932;2023-05-01T01:35:15;102025.97;;;15.14;52.86
65659;BME280;60181;53.258;6.932;2023-05-01T01:39:31;102021.98;;;15.13;52.59
65659;BME280;60181;53.258;6.932;2023-05-01T01:43:21;102017.44;;;15.13;52.54
65659;BME280;60181;53.258;6.932;2023-05-01T01:47:25;102014.42;;;15.14;52.73
65659;BME280;60181;53.258;6.932;2023-05-01T01:51:29;102010.42;;;15.12;52.80
65659;BME280;60181;53.258;6.932;2023-05-01T01:55:33;102006.19;;;15.11;52.73
65659;BME280;60181;53.258;6.932;2023-05-01T01:59:37;102002.14;;;15.11;52.97
65659;BME280;60181;53.258;6.932;2023-05-01T02:03:41;101997.36;;;15.12;52.51
65659;BME280;60181;53.258;6.932;2023-05-01T02:07:45;101991.96;;;15.11;52.84
65659;BME280;60181;53.258;6.932;2023-05-01T02:11:49;101986.31;;;15.10;52.74
65659;BME280;60181;53.258;6.932;2023-05-01T02:15:53;101981.78;;;15.10;52.77
65659;BME280;60181;53.258;6.932;2023-05-01T02:19:57;101976.73;;;15.11;52.73
65659;BME280;60181;53.258;6.932;2023-05-01T02:24:01;101971.78;;;15.12;52.59
65659;BME280;60181;53.258;6.932;2023-05-01T02:28:09;101964.98;;;15.11;52.72
65659;BME280;60181;53.258;6.932;2023-05-01T02:32:09;101957.93;;;15.12;53.45
65659;BME280;60181;53.258;6.932;2023-05-01T02:36:13;101950.59;;;15.13;52.17
65659;BME280;60181;53.258;6.932;2023-05-01T02:40:17;101943.91;;;15.12;52.71
65659;BME280;60181;53.258;6.932;2023-05-01T02:44:21;101937.70;;;15.12;51.81
65659;BME280;60181;53.258;6.932;2023-05-01T02:48:26;101931.31;;;15.10;51.71
65659;BME280;60181;53.258;6.932;2023-05-01T02:52:29;101924.19;;;15.09;51.55
65659;BME280;60181;53.258;6.932;2023-05-01T02:56:33;101916.86;;;15.07;51.18
65659;BME280;60181;53.258;6.932;2023-05-01T03:00:37;101910.31;;;15.06;51.04
65659;BME280;60181;53.258;6.932;2023-05-01T03:04:41;101903.27;;;15.05;50.84
65659;BME280;60181;53.258;6.932;2023-05-01T03:08:45;101896.86;;;15.02;50.87
65659;BME280;60181;53.258;6.932;2023-05-01T03:12:49;101891.60;;;15.01;50.75
65659;BME280;60181;53.258;6.932;2023-05-01T03:16:53;101885.02;;;14.99;50.69
65659;BME280;60181;53.258;6.932;2023-05-01T03:20:57;101878.80;;;14.97;50.68
65659;BME280;60181;53.258;6.932;2023-05-01T03:25:01;101872.80;;;14.95;50.66
65659;BME280;60181;53.258;6.932;2023-05-01T03:29:05;101867.30;;;14.93;50.81
65659;BME280;60181;53.258;6.932;2023-05-01T03:33:09;101862.28;;;14.91;50.72
65659;BME280;60181;53.258;6.932;2023-05-01T03:37:13;101856.95;;;14.88;50.92
65659;BME280;60181;53.258;6.932;2023-05-01T03:41:17;101852.10;;;14.86;51.28
65659;BME280;60181;53.258;6.932;2023-05-01T03:45:21;101847.72;;;14.83;51.17
65659;BME280;60181;53.258;6.932;2023-05-01T03:49:25;101843.98;;;14.81;51.20
65659;BME280;60181;53.258;6.932;2023-05-01T03:53:29;101839.96;;;14.79;51.26
65659;BME280;60181;53.258;6.932;2023-05-01T03:57:33;101835.72;;;14.78;51.27
65659;BME280;60181;53.258;6.932;2023-05-01T04:01:37;101831.24;;;14.77;51.30
65659;BME280;60181;53.258;6.932;2023-05-01T04:05:41;101828.41;;;14.76;51.25
65659;BME280;60181;53.258;6.932;2023-05-01T04:09:45;101825.60;;;14.76;51.33
65659;BME280;60181;53.258;6.932;2023-05-01T04:13:49;101823.67;;;14.75;51.33
65659;BME280;60181;53.258;6.932;2023-05-01T04:17:53;101820.68;;;14.73;51.39
65659;BME280;60181;53.258;6.932;2023-05-01T04:21:57;101818.26;;;14.73;51.19
65659;BME280;60181;53.258;6.932;2023-05-01T04:26:01;101815.42;;;14.72;51.20
65659;BME280;60181;53.258;6.932;2023-05-01T04:30:05;101813.11;;;14.71;51.03
65659;BME280;60181;53.258;6.932;2023-05-01T04:34:09;101810.44;;;14.71;51.09
65659;BME280;60181;53.258;6.932;2023-05-01T04:38:13;101807.97;;;14.70;50.94
65659;BME280;60181;53.258;6.932;2023-05-01T04:42:17;101804.83;;;14.70;50.90
65659;BME280;60181;53.258;6.932;2023-05-01T04:46:21;101801.87;;;14.71;51.00
65659;BME280;60181;53.258;6.932;2023-05-01T04:50:25;101799.97;;;14.71;51.08
65659;BME280;60181;53.258;6.932;2023-05-01T04:54:29;101798.08;;;14.71;51.03
65659;BME280;60181;53.258;6.932;2023-05-01T04:58:33;101796.20;;;14.71;51.08
65659;BME280;60181;53.258;6.932;2023-05-01T05:02:37;101794.09;;;14.73;51.09
65659;BME280;60181;53.258;6.932;2023-05-01T05:06:41;101793.11;;;14.76;50.87
65659;BME280;60181;53.258;6.932;2023-05-01T05:10:45;101792.10;;;14.78;50.87
65659;BME280;60181;53.258;6.932;2023-05-01T05:14:49;101792.31;;;14.81;51.00
65659;BME280;60181;53.258;6.932;2023-05-01T05:18:54;101790.81;;;14.83;51.03
65659;BME280;60181;53.258;6.932;2023-05-01T05:22:57;101789.22;;;14.85;51.06
65659;BME280;60181;53.258;6.932;2023-05-01T05:27:01;101788.20;;;14.87;51.12
65659;BME280;60181;53.258;6.932;2023-05-01T05:31:05;101786.11;;;14.89;51.06
65659;BME280;60181;53.258;6.932;2023-05-01T05:35:09;101783.86;;;14.92;51.07
65659;BME280;60181;53.258;6.932;2023-05-01T05:39:12;101781.70;;;14.94;50.78
65659;BME280;60181;53.258;6.932;2023-05-01T05:43:17;101779.52;;;14.96;50.91
65659;BME280;60181;53.258;6.932;2023-05-01T05:47:21;101777.26;;;14.98;51.01
65659;BME280;60181;53.258;6.932;2023-05-01T05:51:25;101774.44;;;15.00;51.08
65659;BME280;60181;53.258;6.932;2023-05-01T05:55:28;101770.84;;;15.02;50.95
65659;BME280;60181;53.258;6.932;2023-05-01T05:59:32;101768.20;;;15.04;51.10
65659;BME280;60181;53.258;6.932;2023-05-01T06:03:36;101765.37;;;15.07;51.06
65659;BME280;60181;53.258;6.932;2023-05-01T06:07:40;101762.34;;;15.09;51.13
65659;BME280;60181;53.258;6.932;2023-05-01T06:11:44;101758.51;;;15.10;51.23
65659;BME280;60181;53.258;6.932;2023-05-01T06:15:48;101755.59;;;15.13;51.26
65659;BME280;60181;53.258;6.932;2023-05-01T06:19:52;101751.89;;;15.16;51.63
65659;BME280;60181;53.258;6.932;2023-05-01T06:23:56;101748.72;;;15.18;51.51
65659;BME280;60181;53.258;6.932;2023-05-01T06:28:00;101746.12;;;15.21;51.56
65659;BME280;60181;53.258;6.932;2023-05-01T06:32:04;101744.56;;;15.24;51.55
65659;BME280;60181;53.258;6.932;2023-05-01T06:36:08;101743.30;;;15.26;51.86
65659;BME280;60181;53.258;6.932;2023-05-01T06:40:12;101741.53;;;15.28;51.71
65659;BME280;60181;53.258;6.932;2023-05-01T06:44:16;101740.01;;;15.30;51.78
65659;BME280;60181;53.258;6.932;2023-05-01T06:48:20;101739.90;;;15.33;52.30
65659;BME280;60181;53.258;6.932;2023-05-01T06:52:24;101740.17;;;15.37;52.62
65659;BME280;60181;53.258;6.932;2023-05-01T06:56:28;101739.45;;;15.42;52.61
65659;BME280;60181;53.258;6.932;2023-05-01T07:00:32;101738.94;;;15.48;52.33
65659;BME280;60181;53.258;6.932;2023-05-01T07:04:36;101737.77;;;15.55;51.87
65659;BME280;60181;53.258;6.932;2023-05-01T07:08:40;101736.10;;;15.62;52.11
65659;BME280;60181;53.258;6.932;2023-05-01T07:12:44;101733.50;;;15.67;52.05
65659;BME280;60181;53.258;6.932;2023-05-01T07:16:49;101731.86;;;15.72;51.76
65659;BME280;60181;53.258;6.932;2023-05-01T07:20:52;101729.00;;;15.77;51.45
65659;BME280;60181;53.258;6.932;2023-05-01T07:24:56;101727.22;;;15.83;51.17
65659;BME280;60181;53.258;6.932;2023-05-01T07:29:00;101725.41;;;15.89;50.65
65659;BME280;60181;53.258;6.932;2023-05-01T07:33:04;101723.13;;;15.96;50.25
65659;BME280;60181;53.258;6.932;2023-05-01T07:37:08;101721.36;;;16.02;50.11
65659;BME280;60181;53.258;6.932;2023-05-01T07:41:12;101718.83;;;16.07;49.89
65659;BME280;60181;53.258;6.932;2023-05-01T07:45:16;101716.82;;;16.14;49.74
65659;BME280;60181;53.258;6.932;2023-05-01T07:49:20;101715.47;;;16.22;49.63
65659;BME280;60181;53.258;6.932;2023-05-01T07:53:24;101713.64;;;16.30;49.53
65659;BME280;60181;53.258;6.932;2023-05-01T07:57:28;101712.03;;;16.37;49.46
65659;BME280;60181;53.258;6.932;2023-05-01T08:01:32;101709.58;;;16.44;49.28
65659;BME280;60181;53.258;6.932;2023-05-01T08:05:39;101706.59;;;16.51;49.19
65659;BME280;60181;53.258;6.932;2023-05-01T08:09:40;101704.64;;;16.57;49.18
65659;BME280;60181;53.258;6.932;2023-05-01T08:13:44;101703.74;;;16.63;49.09
65659;BME280;60181;53.258;6.932;2023-05-01T08:17:48;101702.66;;;16.68;48.96
65659;BME280;60181;53.258;6.932;2023-05-01T08:21:52;101700.17;;;16.72;48.94
65659;BME280;60181;53.258;6.932;2023-05-01T08:25:56;101698.47;;;16.75;48.80
65659;BME280;60181;53.258;6.932;2023-05-01T08:30:00;101696.86;;;16.76;48.85
65659;BME280;60181;53.258;6.932;2023-05-01T08:34:04;101695.37;;;16.78;48.94
65659;BME280;60181;53.258;6.932;2023-05-01T08:38:09;101694.02;;;16.80;48.91
65659;BME280;60181;53.258;6.932;2023-05-01T08:42:12;101693.23;;;16.82;48.94
65659;BME280;60181;53.258;6.932;2023-05-01T08:46:19;101692.00;;;16.83;49.13
65659;BME280;60181;53.258;6.932;2023-05-01T08:50:20;101691.19;;;16.85;49.16
65659;BME280;60181;53.258;6.932;2023-05-01T08:54:24;101690.73;;;16.86;49.31
65659;BME280;60181;53.258;6.932;2023-05-01T08:58:28;101691.00;;;16.87;49.32
65659;BME280;60181;53.258;6.932;2023-05-01T09:02:33;101689.56;;;16.91;55.28
65659;BME280;60181;53.258;6.932;2023-05-01T09:06:36;101688.95;;;17.03;52.53
65659;BME280;60181;53.258;6.932;2023-05-01T09:10:43;101687.78;;;17.14;52.29
65659;BME280;60181;53.258;6.932;2023-05-01T09:14:44;101686.56;;;17.22;52.19
65659;BME280;60181;53.258;6.932;2023-05-01T09:18:48;101686.67;;;17.28;52.09
65659;BME280;60181;53.258;6.932;2023-05-01T09:22:52;101685.93;;;17.33;52.04
65659;BME280;60181;53.258;6.932;2023-05-01T09:26:56;101683.92;;;17.37;51.87
65659;BME280;60181;53.258;6.932;2023-05-01T09:31:00;101681.31;;;17.41;51.73
65659;BME280;60181;53.258;6.932;2023-05-01T09:35:11;101678.38;;;17.45;51.68
65659;BME280;60181;53.258;6.932;2023-05-01T09:39:08;101676.01;;;17.46;51.71
65659;BME280;60181;53.258;6.932;2023-05-01T09:43:12;101674.45;;;17.48;51.67
65659;BME280;60181;53.258;6.932;2023-05-01T09:47:19;101673.66;;;17.50;51.54
65659;BME280;60181;53.258;6.932;2023-05-01T09:51:27;101672.41;;;17.52;51.50
65659;BME280;60181;53.258;6.932;2023-05-01T09:55:24;101671.12;;;17.53;51.46
65659;BME280;60181;53.258;6.932;2023-05-01T09:59:28;101669.23;;;17.54;51.39
65659;BME280;60181;53.258;6.932;2023-05-01T10:03:35;101668.00;;;17.56;51.42
65659;BME280;60181;53.258;6.932;2023-05-01T10:07:37;101665.62;;;17.56;51.42
65659;BME280;60181;53.258;6.932;2023-05-01T10:11:47;101664.37;;;17.57;51.46
65659;BME280;60181;53.258;6.932;2023-05-01T10:15:44;101662.82;;;17.58;51.45
65659;BME280;60181;53.258;6.932;2023-05-01T10:19:48;101662.15;;;17.58;51.49
65659;BME280;60181;53.258;6.932;2023-05-01T10:23:52;101661.39;;;17.57;51.61
65659;BME280;60181;53.258;6.932;2023-05-01T10:27:56;101660.03;;;17.55;51.78
65659;BME280;60181;53.258;6.932;2023-05-01T10:32:00;101657.87;;;17.53;51.73
65659;BME280;60181;53.258;6.932;2023-05-01T10:36:04;101655.70;;;17.52;51.79
65659;BME280;60181;53.258;6.932;2023-05-01T10:44:18;101653.92;;;17.49;51.79
65659;BME280;60181;53.258;6.932;2023-05-01T10:52:20;101653.70;;;17.46;51.98
65659;BME280;60181;53.258;6.932;2023-05-01T11:00:28;101652.20;;;17.43;52.07
65659;BME280;60181;53.258;6.932;2023-05-01T11:04:45;101650.11;;;17.42;51.99
65659;BME280;60181;53.258;6.932;2023-05-01T11:08:37;101647.67;;;17.40;52.13
65659;BME280;60181;53.258;6.932;2023-05-01T11:16:44;101642.94;;;17.39;52.19
65659;BME280;60181;53.258;6.932;2023-05-01T11:20:48;101641.36;;;17.37;52.22
65659;BME280;60181;53.258;6.932;2023-05-01T11:24:52;101639.36;;;17.36;52.26
65659;BME280;60181;53.258;6.932;2023-05-01T11:28:57;101637.84;;;17.35;52.24
65659;BME280;60181;53.258;6.932;2023-05-01T11:33:00;101637.25;;;17.35;52.24
65659;BME280;60181;53.258;6.932;2023-05-01T11:37:04;101637.14;;;17.34;52.30
65659;BME280;60181;53.258;6.932;2023-05-01T11:41:08;101637.08;;;17.33;52.33
65659;BME280;60181;53.258;6.932;2023-05-01T11:45:12;101636.22;;;17.32;52.30
65659;BME280;60181;53.258;6.932;2023-05-01T11:49:17;101634.48;;;17.32;52.28
65659;BME280;60181;53.258;6.932;2023-05-01T11:53:20;101633.49;;;17.32;52.23
65659;BME280;60181;53.258;6.932;2023-05-01T11:57:24;101631.17;;;17.32;52.25
65659;BME280;60181;53.258;6.932;2023-05-01T12:01:34;101630.59;;;17.32;52.30
65659;BME280;60181;53.258;6.932;2023-05-01T12:05:32;101629.85;;;17.32;52.32
65659;BME280;60181;53.258;6.932;2023-05-01T12:09:36;101629.77;;;17.32;52.43
65659;BME280;60181;53.258;6.932;2023-05-01T12:13:40;101627.67;;;17.32;52.35
65659;BME280;60181;53.258;6.932;2023-05-01T12:17:44;101626.84;;;17.32;52.43
65659;BME280;60181;53.258;6.932;2023-05-01T12:21:48;101626.11;;;17.31;52.51
65659;BME280;60181;53.258;6.932;2023-05-01T12:25:52;101626.37;;;17.31;52.52
65659;BME280;60181;53.258;6.932;2023-05-01T12:29:56;101626.01;;;17.30;52.56
65659;BME280;60181;53.258;6.932;2023-05-01T12:34:03;101625.52;;;17.30;52.64
65659;BME280;60181;53.258;6.932;2023-05-01T12:38:11;101625.67;;;17.29;52.50
65659;BME280;60181;53.258;6.932;2023-05-01T12:42:11;101625.30;;;17.27;52.71
65659;BME280;60181;53.258;6.932;2023-05-01T12:46:12;101625.56;;;17.26;52.84
65659;BME280;60181;53.258;6.932;2023-05-01T12:50:16;101624.88;;;17.26;51.74
65659;BME280;60181;53.258;6.932;2023-05-01T12:54:25;101624.24;;;17.26;52.26
65659;BME280;60181;53.258;6.932;2023-05-01T12:58:35;101623.81;;;17.27;52.09
65659;BME280;60181;53.258;6.932;2023-05-01T13:02:28;101624.29;;;17.26;51.63
65659;BME280;60181;53.258;6.932;2023-05-01T13:06:32;101624.77;;;17.25;50.47
65659;BME280;60181;53.258;6.932;2023-05-01T13:10:36;101624.43;;;17.23;50.54
65659;BME280;60181;53.258;6.932;2023-05-01T13:14:40;101625.27;;;17.23;50.70
65659;BME280;60181;53.258;6.932;2023-05-01T13:18:47;101625.59;;;17.23;50.99
65659;BME280;60181;53.258;6.932;2023-05-01T13:22:48;101625.31;;;17.21;49.36
65659;BME280;60181;53.258;6.932;2023-05-01T13:26:55;101625.64;;;17.20;49.67
65659;BME280;60181;53.258;6.932;2023-05-01T13:30:56;101625.31;;;17.20;50.31
65659;BME280;60181;53.258;6.932;2023-05-01T13:35:00;101624.70;;;17.19;50.43
65659;BME280;60181;53.258;6.932;2023-05-01T13:39:04;101624.76;;;17.16;50.10
65659;BME280;60181;53.258;6.932;2023-05-01T13:43:12;101624.73;;;17.16;50.70
65659;BME280;60181;53.258;6.932;2023-05-01T13:47:14;101623.19;;;17.16;51.19
65659;BME280;60181;53.258;6.932;2023-05-01T13:51:20;101622.36;;;17.17;51.49
65659;BME280;60181;53.258;6.932;2023-05-01T13:55:20;101621.85;;;17.17;51.43
65659;BME280;60181;53.258;6.932;2023-05-01T13:59:24;101621.66;;;17.20;51.51
65659;BME280;60181;53.258;6.932;2023-05-01T14:03:29;101619.62;;;17.23;51.56
65659;BME280;60181;53.258;6.932;2023-05-01T14:07:32;101619.26;;;17.27;51.65
65659;BME280;60181;53.258;6.932;2023-05-01T14:11:46;101619.73;;;17.30;51.68
65659;BME280;60181;53.258;6.932;2023-05-01T14:15:40;101619.56;;;17.32;51.74
65659;BME280;60181;53.258;6.932;2023-05-01T14:19:44;101620.73;;;17.31;52.02
65659;BME280;60181;53.258;6.932;2023-05-01T14:23:48;101621.31;;;17.31;52.07
65659;BME280;60181;53.258;6.932;2023-05-01T14:27:52;101621.80;;;17.31;52.02
65659;BME280;60181;53.258;6.932;2023-05-01T14:32:00;101621.80;;;17.31;52.17
65659;BME280;60181;53.258;6.932;2023-05-01T14:36:00;101622.22;;;17.31;52.22
65659;BME280;60181;53.258;6.932;2023-05-01T14:40:04;101623.39;;;17.31;52.36
65659;BME280;60181;53.258;6.932;2023-05-01T14:44:14;101623.53;;;17.30;52.44
65659;BME280;60181;53.258;6.932;2023-05-01T14:48:16;101623.74;;;17.28;52.50
65659;BME280;60181;53.258;6.932;2023-05-01T14:52:18;101624.56;;;17.27;52.62
65659;BME280;60181;53.258;6.932;2023-05-01T14:56:20;101626.95;;;17.25;52.72
65659;BME280;60181;53.258;6.932;2023-05-01T15:00:24;101627.98;;;17.24;52.80
65659;BME280;60181;53.258;6.932;2023-05-01T15:04:28;101629.38;;;17.22;52.89
65659;BME280;60181;53.258;6.932;2023-05-01T15:08:32;101629.96;;;17.21;52.99
65659;BME280;60181;53.258;6.932;2023-05-01T15:12:36;101629.36;;;17.20;53.06
65659;BME280;60181;53.258;6.932;2023-05-01T15:16:40;101629.16;;;17.18;54.16
65659;BME280;60181;53.258;6.932;2023-05-01T15:20:44;101629.24;;;17.17;53.82
65659;BME280;60181;53.258;6.932;2023-05-01T15:24:48;101629.55;;;17.17;53.65
65659;BME280;60181;53.258;6.932;2023-05-01T15:28:52;101630.38;;;17.17;53.59
65659;BME280;60181;53.258;6.932;2023-05-01T15:32:56;101630.63;;;17.17;53.68
65659;BME280;60181;53.258;6.932;2023-05-01T15:37:00;101631.97;;;17.16;53.81
65659;BME280;60181;53.258;6.932;2023-05-01T15:41:04;101633.26;;;17.16;53.76
65659;BME280;60181;53.258;6.932;2023-05-01T15:45:08;101635.17;;;17.15;53.88
65659;BME280;60181;53.258;6.932;2023-05-01T15:49:12;101635.82;;;17.15;53.83
65659;BME280;60181;53.258;6.932;2023-05-01T15:53:16;101637.39;;;17.15;53.77
65659;BME280;60181;53.258;6.932;2023-05-01T15:57:20;101639.12;;;17.14;53.93
65659;BME280;60181;53.258;6.932;2023-05-01T16:01:24;101641.36;;;17.15;53.90
65659;BME280;60181;53.258;6.932;2023-05-01T16:05:28;101643.92;;;17.15;53.93
65659;BME280;60181;53.258;6.932;2023-05-01T16:09:32;101646.41;;;17.15;54.01
65659;BME280;60181;53.258;6.932;2023-05-01T16:13:36;101647.32;;;17.15;54.00
65659;BME280;60181;53.258;6.932;2023-05-01T16:17:43;101648.24;;;17.14;54.13
65659;BME280;60181;53.258;6.932;2023-05-01T16:21:44;101647.39;;;17.13;54.13
65659;BME280;60181;53.258;6.932;2023-05-01T16:25:48;101647.78;;;17.13;54.23
65659;BME280;60181;53.258;6.932;2023-05-01T16:29:52;101649.10;;;17.12;54.23
65659;BME280;60181;53.258;6.932;2023-05-01T16:33:56;101651.50;;;17.11;54.15
65659;BME280;60181;53.258;6.932;2023-05-01T16:38:00;101655.87;;;17.10;54.26
65659;BME280;60181;53.258;6.932;2023-05-01T16:42:04;101660.99;;;17.08;54.35
65659;BME280;60181;53.258;6.932;2023-05-01T16:46:08;101664.42;;;17.07;54.32
65659;BME280;60181;53.258;6.932;2023-05-01T16:50:12;101668.80;;;17.06;54.32
65659;BME280;60181;53.258;6.932;2023-05-01T16:54:16;101671.84;;;17.04;54.31
65659;BME280;60181;53.258;6.932;2023-05-01T16:58:20;101674.06;;;17.03;54.31
65659;BME280;60181;53.258;6.932;2023-05-01T17:02:24;101675.37;;;17.02;54.34
65659;BME280;60181;53.258;6.932;2023-05-01T17:06:28;101677.17;;;17.01;54.33
65659;BME280;60181;53.258;6.932;2023-05-01T17:10:32;101678.83;;;17.01;54.46
65659;BME280;60181;53.258;6.932;2023-05-01T17:14:36;101679.91;;;17.01;54.53
65659;BME280;60181;53.258;6.932;2023-05-01T17:18:40;101679.66;;;17.01;54.57
65659;BME280;60181;53.258;6.932;2023-05-01T17:22:44;101679.33;;;17.01;54.72
65659;BME280;60181;53.258;6.932;2023-05-01T17:26:48;101677.89;;;17.00;54.82
65659;BME280;60181;53.258;6.932;2023-05-01T17:30:52;101677.62;;;16.99;54.85
65659;BME280;60181;53.258;6.932;2023-05-01T17:34:56;101677.14;;;16.98;54.98
65659;BME280;60181;53.258;6.932;2023-05-01T17:39:00;101677.18;;;16.97;55.07
65659;BME280;60181;53.258;6.932;2023-05-01T17:43:04;101678.81;;;16.96;55.07
65659;BME280;60181;53.258;6.932;2023-05-01T17:47:08;101680.64;;;16.95;55.10
65659;BME280;60181;53.258;6.932;2023-05-01T17:51:12;101682.14;;;16.95;55.04
65659;BME280;60181;53.258;6.932;2023-05-01T17:55:16;101684.37;;;16.95;55.18
65659;BME280;60181;53.258;6.932;2023-05-01T17:59:20;101687.72;;;16.94;55.30
65659;BME280;60181;53.258;6.932;2023-05-01T18:03:24;101691.39;;;16.93;55.34
65659;BME280;60181;53.258;6.932;2023-05-01T18:07:28;101694.53;;;16.91;55.43
65659;BME280;60181;53.258;6.932;2023-05-01T18:11:31;101698.56;;;16.90;55.92
65659;BME280;60181;53.258;6.932;2023-05-01T18:15:35;101702.97;;;16.91;56.23
65659;BME280;60181;53.258;6.932;2023-05-01T18:19:40;101706.75;;;16.90;55.80
65659;BME280;60181;53.258;6.932;2023-05-01T18:23:43;101710.97;;;16.90;57.57
65659;BME280;60181;53.258;6.932;2023-05-01T18:27:47;101714.78;;;16.90;57.57
65659;BME280;60181;53.258;6.932;2023-05-01T18:31:51;101716.72;;;16.88;57.53
65659;BME280;60181;53.258;6.932;2023-05-01T18:35:55;101720.26;;;16.87;57.59
65659;BME280;60181;53.258;6.932;2023-05-01T18:39:59;101722.90;;;16.85;57.71
65659;BME280;60181;53.258;6.932;2023-05-01T18:44:04;101726.44;;;16.84;57.76
65659;BME280;60181;53.258;6.932;2023-05-01T18:48:07;101730.81;;;16.83;57.85
65659;BME280;60181;53.258;6.932;2023-05-01T18:52:12;101734.74;;;16.81;57.87
65659;BME280;60181;53.258;6.932;2023-05-01T18:56:15;101738.11;;;16.80;57.93
65659;BME280;60181;53.258;6.932;2023-05-01T19:00:20;101741.16;;;16.79;57.98
65659;BME280;60181;53.258;6.932;2023-05-01T19:04:23;101744.70;;;16.77;58.04
65659;BME280;60181;53.258;6.932;2023-05-01T19:08:27;101747.41;;;16.76;58.15
65659;BME280;60181;53.258;6.932;2023-05-01T19:12:32;101751.11;;;16.75;58.20
65659;BME280;60181;53.258;6.932;2023-05-01T19:16:36;101753.16;;;16.74;58.19
65659;BME280;60181;53.258;6.932;2023-05-01T19:20:39;101756.12;;;16.73;58.25
65659;BME280;60181;53.258;6.932;2023-05-01T19:24:43;101758.74;;;16.72;58.35
65659;BME280;60181;53.258;6.932;2023-05-01T19:28:47;101761.39;;;16.72;58.42
65659;BME280;60181;53.258;6.932;2023-05-01T19:32:51;101763.55;;;16.72;58.30
65659;BME280;60181;53.258;6.932;2023-05-01T19:36:55;101765.83;;;16.71;58.23
65659;BME280;60181;53.258;6.932;2023-05-01T19:40:59;101768.98;;;16.71;58.06
65659;BME280;60181;53.258;6.932;2023-05-01T19:45:04;101772.96;;;16.71;57.98
65659;BME280;60181;53.258;6.932;2023-05-01T19:49:07;101774.75;;;16.70;57.92
65659;BME280;60181;53.258;6.932;2023-05-01T19:53:11;101777.15;;;16.70;58.11
65659;BME280;60181;53.258;6.932;2023-05-01T19:57:15;101779.55;;;16.70;58.50
65659;BME280;60181;53.258;6.932;2023-05-01T20:01:19;101782.03;;;16.69;58.27
65659;BME280;60181;53.258;6.932;2023-05-01T20:05:23;101785.05;;;16.68;58.43
65659;BME280;60181;53.258;6.932;2023-05-01T20:09:27;101787.84;;;16.66;58.65
65659;BME280;60181;53.258;6.932;2023-05-01T20:13:31;101791.44;;;16.64;58.80
65659;BME280;60181;53.258;6.932;2023-05-01T20:17:35;101795.31;;;16.63;58.66
65659;BME280;60181;53.258;6.932;2023-05-01T20:21:39;101799.01;;;16.62;58.84
65659;BME280;60181;53.258;6.932;2023-05-01T20:25:43;101803.87;;;16.61;59.02
65659;BME280;60181;53.258;6.932;2023-05-01T20:29:47;101807.95;;;16.59;59.02
65659;BME280;60181;53.258;6.932;2023-05-01T20:33:51;101813.72;;;16.58;59.14
65659;BME280;60181;53.258;6.932;2023-05-01T20:37:55;101818.58;;;16.57;59.08
65659;BME280;60181;53.258;6.932;2023-05-01T20:41:59;101821.55;;;16.55;59.32
65659;BME280;60181;53.258;6.932;2023-05-01T20:46:03;101824.83;;;16.54;59.38
65659;BME280;60181;53.258;6.932;2023-05-01T20:50:08;101828.36;;;16.53;59.45
65659;BME280;60181;53.258;6.932;2023-05-01T20:54:11;101831.56;;;16.53;59.54
65659;BME280;60181;53.258;6.932;2023-05-01T20:58:15;101833.04;;;16.52;59.28
65659;BME280;60181;53.258;6.932;2023-05-01T21:02:19;101833.80;;;16.52;59.31
65659;BME280;60181;53.258;6.932;2023-05-01T21:06:23;101835.29;;;16.52;59.52
65659;BME280;60181;53.258;6.932;2023-05-01T21:10:27;101836.94;;;16.52;59.39
65659;BME280;60181;53.258;6.932;2023-05-01T21:14:31;101838.01;;;16.53;59.55
65659;BME280;60181;53.258;6.932;2023-05-01T21:18:35;101838.04;;;16.53;59.57
65659;BME280;60181;53.258;6.932;2023-05-01T21:22:40;101837.46;;;16.53;59.65
65659;BME280;60181;53.258;6.932;2023-05-01T21:26:43;101838.12;;;16.53;59.65
65659;BME280;60181;53.258;6.932;2023-05-01T21:30:47;101838.34;;;16.53;59.78
65659;BME280;60181;53.258;6.932;2023-05-01T21:34:51;101838.84;;;16.53;59.87
65659;BME280;60181;53.258;6.932;2023-05-01T21:38:56;101840.08;;;16.52;60.15
65659;BME280;60181;53.258;6.932;2023-05-01T21:42:59;101841.08;;;16.52;60.21